createdAt,value
2018-08-24T00:00:30.984Z,95341.84
2018-08-24T00:03:00.179Z,95337.10
2018-08-24T00:05:29.279Z,95324.28
2018-08-24T00:07:58.390Z,95329.17
2018-08-24T00:10:27.587Z,95328.28
2018-08-24T00:12:56.823Z,95327.27
2018-08-24T00:15:25.919Z,95325.36
2018-08-24T00:17:55.067Z,95331.05
2018-08-24T00:20:24.519Z,95327.62
2018-08-24T00:22:53.595Z,95324.38
2018-08-24T00:25:22.769Z,95325.73
2018-08-24T00:27:51.979Z,95324.93
2018-08-24T00:30:21.071Z,95325.94
2018-08-24T00:32:50.240Z,95321.70
2018-08-24T00:35:19.431Z,95322.33
2018-08-24T00:37:48.510Z,95319.98
2018-08-24T00:40:17.643Z,95332.61
2018-08-24T00:42:46.757Z,95324.29
2018-08-24T00:45:15.831Z,95324.11
2018-08-24T00:47:45.111Z,95322.59
2018-08-24T00:50:14.232Z,95330.16
2018-08-24T00:52:43.341Z,95327.03
2018-08-24T00:55:12.501Z,95321.17
2018-08-24T00:57:41.619Z,95324.44
2018-08-24T01:00:10.817Z,95320.02
2018-08-24T01:02:39.977Z,95328.91
2018-08-24T01:05:09.106Z,95326.41
2018-08-24T01:08:15.276Z,95322.34
2018-08-24T01:10:44.467Z,95330.57
2018-08-24T01:13:14.943Z,95331.47
2018-08-24T01:15:55.036Z,95333.73
2018-08-24T01:18:28.324Z,95334.72
2018-08-24T01:20:57.436Z,95336.12
2018-08-24T01:23:28.720Z,95331.28
2018-08-24T01:25:57.828Z,95330.52
2018-08-24T01:28:27.200Z,95339.48
2018-08-24T01:31:01.959Z,95330.09
2018-08-24T01:33:31.845Z,95336.12
2018-08-24T01:36:01.019Z,95337.39
2018-08-24T01:38:30.131Z,95343.20
2018-08-24T01:40:59.228Z,95337.73
2018-08-24T01:43:28.319Z,95341.70
2018-08-24T01:46:02.644Z,95339.16
2018-08-24T01:48:31.831Z,95329.84
2018-08-24T01:51:01.015Z,95333.10
2018-08-24T01:53:30.134Z,95328.00
2018-08-24T01:55:59.295Z,95331.56
2018-08-24T01:58:28.533Z,95331.09
2018-08-24T02:00:57.707Z,95327.23
2018-08-24T02:03:26.885Z,95327.70
2018-08-24T02:06:02.004Z,95332.67
2018-08-24T02:08:31.247Z,95328.81
2018-08-24T02:11:00.327Z,95326.31
2018-08-24T02:13:34.828Z,95321.73
2018-08-24T02:16:03.936Z,95317.88
2018-08-24T02:18:38.393Z,95327.03
2018-08-24T02:21:12.831Z,95324.84
2018-08-24T02:23:42.011Z,95322.79
2018-08-24T02:26:11.171Z,95322.59
2018-08-24T02:28:40.283Z,95323.84
2018-08-24T02:31:09.479Z,95320.48
2018-08-24T02:33:39.015Z,95322.64
2018-08-24T02:36:09.255Z,95324.44
2018-08-24T02:38:38.767Z,95322.34
2018-08-24T02:41:07.895Z,95326.97
2018-08-24T02:43:36.992Z,95327.11
2018-08-24T02:46:06.253Z,95322.82
2018-08-24T02:48:35.387Z,95321.30
2018-08-24T02:51:04.499Z,95325.92
2018-08-24T02:53:33.693Z,95324.61
2018-08-24T02:56:02.777Z,95328.19
2018-08-24T02:58:31.861Z,95330.65
2018-08-24T03:01:01.013Z,95332.24
2018-08-24T03:03:30.153Z,95331.88
2018-08-24T03:05:59.256Z,95334.91
2018-08-24T03:08:28.363Z,95336.16
2018-08-24T03:10:57.446Z,95338.24
2018-08-24T03:13:26.516Z,95332.14
2018-08-24T03:15:55.711Z,95332.84
2018-08-24T03:18:24.832Z,95332.27
2018-08-24T03:20:54.048Z,95328.79
2018-08-24T03:23:23.240Z,95322.71
2018-08-24T03:25:52.323Z,95320.05
2018-08-24T03:28:21.416Z,95321.20
2018-08-24T03:30:50.514Z,95317.31
2018-08-24T03:33:19.606Z,95321.09
2018-08-24T03:35:48.714Z,95314.98
2018-08-24T03:38:17.842Z,95315.14
2018-08-24T03:40:47.004Z,95315.03
2018-08-24T03:43:16.148Z,95314.33
2018-08-24T03:45:45.260Z,95322.39
2018-08-24T03:48:14.385Z,95321.37
2018-08-24T03:50:43.474Z,95322.20
2018-08-24T03:53:12.919Z,95324.14
2018-08-24T03:55:43.673Z,95327.73
2018-08-24T03:58:12.830Z,95320.23
2018-08-24T04:00:42.032Z,95321.74
2018-08-24T04:03:11.206Z,95325.20
2018-08-24T04:05:40.421Z,95325.43
2018-08-24T04:08:09.517Z,95320.14
2018-08-24T04:10:38.594Z,95322.66
2018-08-24T04:13:07.709Z,95325.91
2018-08-24T04:15:36.845Z,95322.64
2018-08-24T04:18:06.305Z,95332.55
2018-08-24T04:20:35.381Z,95335.09
2018-08-24T04:23:04.502Z,95334.88
2018-08-24T04:25:33.604Z,95334.64
2018-08-24T04:28:02.788Z,95336.03
2018-08-24T04:30:31.916Z,95333.38
2018-08-24T04:33:01.000Z,95337.04
2018-08-24T04:35:30.164Z,95348.01
2018-08-24T04:37:59.308Z,95343.37
2018-08-24T04:40:28.534Z,95344.77
2018-08-24T04:42:57.544Z,95352.14
2018-08-24T04:45:26.715Z,95349.13
2018-08-24T04:47:55.772Z,95351.67
2018-08-24T04:50:24.927Z,95350.42
2018-08-24T04:52:54.040Z,95351.67
2018-08-24T04:55:23.143Z,95357.20
2018-08-24T04:57:52.232Z,95348.25
2018-08-24T05:00:21.334Z,95353.17
2018-08-24T05:02:50.421Z,95344.56
2018-08-24T05:05:19.495Z,95335.08
2018-08-24T05:07:48.855Z,95339.70
2018-08-24T05:10:17.934Z,95337.72
2018-08-24T05:12:47.185Z,95337.63
2018-08-24T05:15:16.323Z,95338.05
2018-08-24T05:17:45.487Z,95345.41
2018-08-24T05:20:14.583Z,95350.48
2018-08-24T05:22:43.722Z,95345.19
2018-08-24T05:25:12.783Z,95346.55
2018-08-24T05:27:41.879Z,95351.16
2018-08-24T05:30:11.091Z,95351.51
2018-08-24T05:32:40.263Z,95353.23
2018-08-24T05:35:09.395Z,95351.37
2018-08-24T05:37:38.585Z,95357.35
2018-08-24T05:40:07.765Z,95351.81
2018-08-24T05:42:36.965Z,95349.52
2018-08-24T05:45:06.276Z,95354.72
2018-08-24T05:47:35.449Z,95357.14
2018-08-24T05:50:04.521Z,95364.06
2018-08-24T05:52:33.616Z,95362.20
2018-08-24T05:55:02.757Z,95367.04
2018-08-24T05:57:31.866Z,95378.34
2018-08-24T06:00:00.940Z,95378.11
2018-08-24T06:02:30.025Z,95376.91
2018-08-24T06:04:59.128Z,95378.93
2018-08-24T06:07:28.258Z,95386.35
2018-08-24T06:09:57.354Z,95391.69
2018-08-24T06:12:26.492Z,95389.97
2018-08-24T06:14:55.589Z,95391.80
2018-08-24T06:17:30.171Z,95395.36
2018-08-24T06:19:59.261Z,95394.85
2018-08-24T06:22:28.351Z,95399.88
2018-08-24T06:24:57.431Z,95403.39
2018-08-24T06:27:26.513Z,95417.24
2018-08-24T06:29:55.601Z,95418.63
2018-08-24T06:32:24.689Z,95428.23
2018-08-24T06:34:53.930Z,95427.03
2018-08-24T06:37:23.096Z,95427.95
2018-08-24T06:39:52.212Z,95437.46
2018-08-24T06:42:21.394Z,95445.97
2018-08-24T06:44:50.476Z,95436.03
2018-08-24T06:47:19.622Z,95440.72
2018-08-24T06:49:48.868Z,95454.23
2018-08-24T06:52:17.960Z,95459.00
2018-08-24T06:54:47.076Z,95462.34
2018-08-24T06:57:16.436Z,95457.86
2018-08-24T06:59:45.682Z,95456.77
2018-08-24T07:02:14.684Z,95467.73
2018-08-24T07:04:43.848Z,95458.44
2018-08-24T07:07:13.046Z,95473.14
2018-08-24T07:09:42.252Z,95464.14
2018-08-24T07:12:12.780Z,95461.50
2018-08-24T07:14:42.744Z,95459.98
2018-08-24T07:17:11.912Z,95466.31
2018-08-24T07:19:41.120Z,95470.91
2018-08-24T07:22:10.382Z,95469.10
2018-08-24T07:24:39.497Z,95467.53
2018-08-24T07:27:08.604Z,95476.41
2018-08-24T07:29:37.735Z,95473.05
2018-08-24T07:32:06.896Z,95477.64
2018-08-24T07:34:36.062Z,95475.00
2018-08-24T07:37:05.493Z,95481.06
2018-08-24T07:39:34.701Z,95485.22
2018-08-24T07:42:03.859Z,95475.28
2018-08-24T07:44:37.157Z,95476.44
2018-08-24T07:47:06.295Z,95477.11
2018-08-24T07:49:35.455Z,95478.17
2018-08-24T07:52:04.565Z,95472.16
2018-08-24T07:54:33.753Z,95481.95
2018-08-24T07:57:03.020Z,95478.49
2018-08-24T07:59:32.052Z,95474.92
2018-08-24T08:02:01.166Z,95480.61
2018-08-24T08:04:30.428Z,95476.97
2018-08-24T08:06:59.524Z,95469.31
2018-08-24T08:09:28.656Z,95468.52
2018-08-24T08:11:57.890Z,95470.72
2018-08-24T08:14:27.113Z,95470.44
2018-08-24T08:17:01.497Z,95473.20
2018-08-24T08:19:31.509Z,95472.30
2018-08-24T08:22:01.326Z,95476.02
2018-08-24T08:24:30.478Z,95467.84
2018-08-24T08:26:59.504Z,95478.56
2018-08-24T08:29:33.891Z,95470.25
2018-08-24T08:32:03.188Z,95472.15
2018-08-24T08:34:36.071Z,95468.70
2018-08-24T08:37:05.253Z,95463.69
2018-08-24T08:39:34.359Z,95470.80
2018-08-24T08:42:03.459Z,95466.83
2018-08-24T08:44:32.557Z,95466.19
2018-08-24T08:47:01.743Z,95469.22
2018-08-24T08:49:30.953Z,95471.77
2018-08-24T08:52:00.035Z,95469.97
2018-08-24T08:54:29.120Z,95470.58
2018-08-24T08:56:58.321Z,95470.91
2018-08-24T08:59:27.447Z,95472.98
2018-08-24T09:01:56.926Z,95472.55
2018-08-24T09:04:26.007Z,95476.86
2018-08-24T09:06:55.083Z,95472.89
2018-08-24T09:09:24.221Z,95473.45
2018-08-24T09:11:53.312Z,95477.47
2018-08-24T09:14:22.432Z,95487.11
2018-08-24T09:16:51.587Z,95478.92
2018-08-24T09:19:26.052Z,95482.50
2018-08-24T09:22:00.534Z,95496.72
2018-08-24T09:24:35.083Z,95492.17
2018-08-24T09:27:09.599Z,95498.77
2018-08-24T09:29:38.699Z,95501.20
2018-08-24T09:32:07.917Z,95514.80
2018-08-24T09:34:37.151Z,95505.94
2018-08-24T09:37:10.452Z,95507.97
2018-08-24T09:39:39.662Z,95510.48
2018-08-24T09:42:08.732Z,95511.59
2018-08-24T09:44:37.808Z,95515.56
2018-08-24T09:47:12.324Z,95513.30
2018-08-24T09:49:42.348Z,95504.14
2018-08-24T09:52:16.864Z,95521.20
2018-08-24T09:54:46.013Z,95528.68
2018-08-24T09:57:15.073Z,95524.29
2018-08-24T09:59:44.201Z,95525.65
2018-08-24T10:02:18.777Z,95526.25
2018-08-24T10:04:53.385Z,95529.83
2018-08-24T10:07:27.861Z,95522.20
2018-08-24T10:09:57.387Z,95523.12
2018-08-24T10:12:26.479Z,95527.03
2018-08-24T10:14:55.675Z,95512.23
2018-08-24T10:17:27.835Z,95517.84
2018-08-24T10:19:56.933Z,95508.61
2018-08-24T10:22:26.045Z,95505.89
2018-08-24T10:24:55.148Z,95498.21
2018-08-24T10:27:24.427Z,95500.88
2018-08-24T10:29:53.524Z,95496.18
2018-08-24T10:32:22.659Z,95494.58
2018-08-24T10:34:51.962Z,95504.48
2018-08-24T10:37:21.157Z,95502.17
2018-08-24T10:39:50.250Z,95513.22
2018-08-24T10:42:19.418Z,95505.20
2018-08-24T10:44:48.510Z,95508.18
2018-08-24T10:47:17.620Z,95501.95
2018-08-24T10:49:46.704Z,95496.16
2018-08-24T10:52:15.793Z,95497.56
2018-08-24T10:54:45.054Z,95500.43
2018-08-24T10:57:14.116Z,95501.72
2018-08-24T10:59:43.204Z,95499.05
2018-08-24T11:02:12.377Z,95490.41
2018-08-24T11:04:41.577Z,95487.39
2018-08-24T11:07:10.771Z,95482.81
2018-08-24T11:09:39.788Z,95481.44
2018-08-24T11:12:08.984Z,95477.53
2018-08-24T11:14:38.079Z,95471.28
2018-08-24T11:17:07.282Z,95469.88
2018-08-24T11:19:36.358Z,95467.58
2018-08-24T11:22:05.461Z,95462.98
2018-08-24T11:24:34.657Z,95465.05
2018-08-24T11:27:03.756Z,95452.82
2018-08-24T11:29:32.926Z,95456.20
2018-08-24T11:32:02.046Z,95449.83
2018-08-24T11:34:31.218Z,95442.47
2018-08-24T11:37:00.287Z,95449.62
2018-08-24T11:39:29.425Z,95439.12
2018-08-24T11:41:58.537Z,95435.91
2018-08-24T11:44:27.613Z,95432.09
2018-08-24T11:46:56.713Z,95424.28
2018-08-24T11:49:25.811Z,95419.87
2018-08-24T11:51:55.014Z,95413.77
2018-08-24T11:54:24.124Z,95406.02
2018-08-24T11:56:53.279Z,95416.83
2018-08-24T11:59:22.383Z,95409.03
2018-08-24T12:01:51.477Z,95405.94
2018-08-24T12:04:20.707Z,95406.05
2018-08-24T12:06:49.789Z,95407.38
2018-08-24T12:09:19.063Z,95402.05
2018-08-24T12:11:48.197Z,95402.36
2018-08-24T12:14:17.372Z,95389.66
2018-08-24T12:16:46.653Z,95386.45
2018-08-24T12:19:15.893Z,95390.10
2018-08-24T12:21:45.098Z,95390.27
2018-08-24T12:24:14.352Z,95378.45
2018-08-24T12:26:43.610Z,95380.47
2018-08-24T12:29:12.951Z,95368.20
2018-08-24T12:31:42.029Z,95367.75
2018-08-24T12:34:11.344Z,95376.29
2018-08-24T12:36:40.484Z,95369.89
2018-08-24T12:39:10.944Z,95374.02
2018-08-24T12:41:40.270Z,95368.72
2018-08-24T12:44:09.339Z,95363.45
2018-08-24T12:46:38.476Z,95366.12
2018-08-24T12:49:07.590Z,95366.87
2018-08-24T12:51:36.698Z,95360.20
2018-08-24T12:54:06.088Z,95354.79
2018-08-24T12:56:35.208Z,95360.82
2018-08-24T12:59:04.299Z,95370.27
2018-08-24T13:01:33.542Z,95349.52
2018-08-24T13:04:02.670Z,95357.02
2018-08-24T13:06:31.751Z,95348.90
2018-08-24T13:09:00.961Z,95343.86
2018-08-24T13:11:30.150Z,95349.98
2018-08-24T13:13:59.332Z,95343.87
2018-08-24T13:16:28.555Z,95342.91
2018-08-24T13:18:57.677Z,95331.61
2018-08-24T13:21:26.907Z,95333.27
2018-08-24T13:23:55.994Z,95335.49
2018-08-24T13:26:25.133Z,95334.05
2018-08-24T13:28:54.248Z,95332.42
2018-08-24T13:31:23.332Z,95324.41
2018-08-24T13:33:52.521Z,95321.92
2018-08-24T13:36:21.795Z,95321.75
2018-08-24T13:38:51.106Z,95315.44
2018-08-24T13:41:20.253Z,95307.10
2018-08-24T13:43:49.412Z,95309.11
2018-08-24T13:46:20.671Z,95310.52
2018-08-24T13:48:50.937Z,95297.05
2018-08-24T13:51:20.213Z,95292.37
2018-08-24T13:53:49.377Z,95294.41
2018-08-24T13:56:18.597Z,95290.09
2018-08-24T13:58:47.701Z,95286.32
2018-08-24T14:01:16.885Z,95277.95
2018-08-24T14:03:46.089Z,95276.36
2018-08-24T14:06:15.341Z,95278.08
2018-08-24T14:08:44.539Z,95279.78
2018-08-24T14:11:13.857Z,95282.47
2018-08-24T14:13:42.957Z,95285.27
2018-08-24T14:16:12.145Z,95274.44
2018-08-24T14:18:41.285Z,95281.22
2018-08-24T14:21:10.444Z,95275.83
2018-08-24T14:23:39.543Z,95268.85
2018-08-24T14:26:08.764Z,95268.48
2018-08-24T14:28:37.920Z,95276.34
2018-08-24T14:31:07.040Z,95269.13
2018-08-24T14:33:36.307Z,95262.05
2018-08-24T14:36:05.502Z,95270.75
2018-08-24T14:38:34.609Z,95271.05
2018-08-24T14:41:03.742Z,95274.69
2018-08-24T14:43:32.921Z,95278.09
2018-08-24T14:46:02.103Z,95275.88
2018-08-24T14:48:31.369Z,95284.77
2018-08-24T14:51:00.469Z,95300.11
2018-08-24T14:53:29.697Z,95295.84
2018-08-24T14:55:58.901Z,95302.03
2018-08-24T14:58:28.091Z,95314.37
2018-08-24T15:00:57.304Z,95320.67
2018-08-24T15:03:26.408Z,95317.94
2018-08-24T15:05:55.501Z,95306.61
2018-08-24T15:08:24.721Z,95300.92
2018-08-24T15:10:53.841Z,95291.98
2018-08-24T15:13:23.077Z,95285.02
2018-08-24T15:15:52.193Z,95285.78
2018-08-24T15:18:21.390Z,95283.69
2018-08-24T15:20:50.565Z,95282.63
2018-08-24T15:23:19.769Z,95278.95
2018-08-24T15:25:48.971Z,95284.96
2018-08-24T15:28:18.148Z,95280.41
2018-08-24T15:30:47.969Z,95286.12
2018-08-24T15:33:17.152Z,95279.72
2018-08-24T15:35:46.333Z,95280.23
2018-08-24T15:38:15.572Z,95284.09
2018-08-24T15:40:44.768Z,95273.49
2018-08-24T15:43:13.860Z,95274.45
2018-08-24T15:45:42.982Z,95278.78
2018-08-24T15:48:12.162Z,95275.17
2018-08-24T15:50:41.328Z,95279.77
2018-08-24T15:53:10.524Z,95284.73
2018-08-24T15:55:39.672Z,95293.31
2018-08-24T15:58:08.785Z,95299.58
2018-08-24T16:00:38.016Z,95306.87
2018-08-24T16:03:07.135Z,95327.52
2018-08-24T16:05:36.335Z,95327.08
2018-08-24T16:08:05.609Z,95325.80
2018-08-24T16:10:34.845Z,95323.08
2018-08-24T16:13:04.133Z,95325.64
2018-08-24T16:15:33.215Z,95327.27
2018-08-24T16:18:07.737Z,95330.20
2018-08-24T16:20:36.960Z,95345.63
2018-08-24T16:23:06.388Z,95345.92
2018-08-24T16:25:35.548Z,95344.27
2018-08-24T16:28:04.665Z,95344.42
2018-08-24T16:30:33.828Z,95347.39
2018-08-24T16:33:03.941Z,95343.13
2018-08-24T16:35:33.135Z,95343.08
2018-08-24T16:38:02.259Z,95353.53
2018-08-24T16:40:31.437Z,95353.38
2018-08-24T16:43:00.541Z,95346.02
2018-08-24T16:45:29.653Z,95349.80
2018-08-24T16:47:58.810Z,95354.75
2018-08-24T16:50:27.913Z,95357.77
2018-08-24T16:52:57.031Z,95364.38
2018-08-24T16:55:26.253Z,95368.53
2018-08-24T16:57:55.969Z,95367.55
2018-08-24T17:00:25.153Z,95368.97
2018-08-24T17:02:54.683Z,95377.61
2018-08-24T17:05:23.841Z,95380.56
2018-08-24T17:07:53.021Z,95380.68
2018-08-24T17:10:22.141Z,95380.35
2018-08-24T17:12:51.315Z,95380.25
2018-08-24T17:15:20.429Z,95386.91
2018-08-24T17:17:49.636Z,95396.36
2018-08-24T17:20:18.797Z,95401.42
2018-08-24T17:22:47.902Z,95408.12
2018-08-24T17:25:17.313Z,95418.86
2018-08-24T17:27:46.513Z,95425.64
2018-08-24T17:30:15.680Z,95433.58
2018-08-24T17:32:44.797Z,95430.03
2018-08-24T17:35:13.949Z,95432.44
2018-08-24T17:37:43.168Z,95433.24
2018-08-24T17:40:12.252Z,95428.42
2018-08-24T17:42:41.566Z,95429.08
2018-08-24T17:45:10.702Z,95438.18
2018-08-24T17:47:40.780Z,95424.33
2018-08-24T17:50:09.856Z,95428.56
2018-08-24T17:52:38.986Z,95430.34
2018-08-24T17:55:08.156Z,95440.50
2018-08-24T17:57:37.280Z,95444.09
2018-08-24T18:00:06.664Z,95448.54
2018-08-24T18:02:35.747Z,95453.38
2018-08-24T18:05:04.998Z,95452.81
2018-08-24T18:07:34.258Z,95459.97
2018-08-24T18:10:03.416Z,95457.25
2018-08-24T18:12:32.553Z,95459.52
2018-08-24T18:15:02.097Z,95457.58
2018-08-24T18:17:31.075Z,95451.23
2018-08-24T18:20:00.280Z,95445.48
2018-08-24T18:22:29.358Z,95444.09
2018-08-24T18:24:58.491Z,95445.47
2018-08-24T18:27:27.581Z,95450.53
2018-08-24T18:29:56.823Z,95453.25
2018-08-24T18:32:25.905Z,95463.05
2018-08-24T18:34:55.017Z,95472.02
2018-08-24T18:37:24.285Z,95472.70
2018-08-24T18:39:53.335Z,95470.83
2018-08-24T18:42:22.424Z,95483.14
2018-08-24T18:44:51.566Z,95490.58
2018-08-24T18:47:20.994Z,95499.38
2018-08-24T18:49:50.140Z,95490.80
2018-08-24T18:52:19.244Z,95492.02
2018-08-24T18:54:48.370Z,95498.59
2018-08-24T18:57:17.502Z,95497.79
2018-08-24T18:59:46.602Z,95499.84
2018-08-24T19:02:15.726Z,95500.91
2018-08-24T19:04:44.829Z,95500.73
2018-08-24T19:07:13.920Z,95504.05
2018-08-24T19:09:43.018Z,95511.08
2018-08-24T19:12:18.546Z,95513.20
2018-08-24T19:14:47.652Z,95518.98
2018-08-24T19:18:20.003Z,95512.71
2018-08-24T19:20:54.554Z,95493.58
2018-08-24T19:23:23.709Z,95487.44
2018-08-24T19:25:52.915Z,95494.33
2018-08-24T19:28:27.496Z,95496.08
2018-08-24T19:30:56.667Z,95492.91
2018-08-24T19:33:25.944Z,95490.05
2018-08-24T19:35:55.087Z,95489.66
2018-08-24T19:38:24.259Z,95484.50
2018-08-24T19:40:58.667Z,95473.74
2018-08-24T19:43:27.788Z,95465.50
2018-08-24T19:45:56.872Z,95463.30
2018-08-24T19:48:31.509Z,95469.19
2018-08-24T19:51:00.785Z,95479.40
2018-08-24T19:53:29.892Z,95487.50
2018-08-24T19:55:59.091Z,95486.70
2018-08-24T19:58:33.573Z,95487.56
2018-08-24T20:01:02.715Z,95488.89
2018-08-24T20:03:31.881Z,95489.19
2018-08-24T20:06:06.252Z,95492.09
2018-08-24T20:08:40.816Z,95489.21
2018-08-24T20:11:09.948Z,95494.98
2018-08-24T20:13:39.112Z,95490.85
2018-08-24T20:16:13.485Z,95488.61
2018-08-24T20:18:42.771Z,95493.47
2018-08-24T20:21:11.802Z,95504.19
2018-08-24T20:23:40.912Z,95509.62
2018-08-24T20:26:10.035Z,95512.19
2018-08-24T20:28:39.134Z,95514.70
2018-08-24T20:31:08.329Z,95518.36
2018-08-24T20:33:37.531Z,95517.23
2018-08-24T20:36:06.664Z,95521.52
2018-08-24T20:38:35.808Z,95524.02
2018-08-24T20:41:05.101Z,95514.02
2018-08-24T20:43:34.345Z,95517.73
2018-08-24T20:46:03.520Z,95532.53
2018-08-24T20:48:32.648Z,95530.19
2018-08-24T20:51:01.983Z,95536.57
2018-08-24T20:53:31.108Z,95535.88
2018-08-24T20:56:00.276Z,95527.15
2018-08-24T20:58:29.372Z,95532.72
2018-08-24T21:00:58.494Z,95532.30
2018-08-24T21:03:27.756Z,95531.74
2018-08-24T21:05:56.997Z,95534.34
2018-08-24T21:08:26.112Z,95532.00
2018-08-24T21:10:55.210Z,95531.61
2018-08-24T21:13:24.449Z,95529.17
2018-08-24T21:15:53.599Z,95519.87
2018-08-24T21:18:22.758Z,95518.72
2018-08-24T21:20:51.884Z,95523.08
2018-08-24T21:23:20.995Z,95520.66
2018-08-24T21:25:50.130Z,95527.30
2018-08-24T21:28:19.244Z,95520.42
2018-08-24T21:30:48.364Z,95526.91
2018-08-24T21:33:17.512Z,95525.22
2018-08-24T21:35:46.616Z,95526.91
2018-08-24T21:38:15.725Z,95533.55
2018-08-24T21:40:44.950Z,95536.39
2018-08-24T21:43:14.107Z,95530.62
2018-08-24T21:45:43.215Z,95531.66
2018-08-24T21:48:12.440Z,95526.73
2018-08-24T21:50:41.603Z,95531.17
2018-08-24T21:53:10.715Z,95529.41
2018-08-24T21:55:39.901Z,95533.44
2018-08-24T21:58:09.092Z,95529.88
2018-08-24T22:00:41.431Z,95532.48
2018-08-24T22:03:11.837Z,95524.14
2018-08-24T22:05:41.181Z,95527.63
2018-08-24T22:08:10.336Z,95521.47
2018-08-24T22:10:39.492Z,95526.00
2018-08-24T22:13:08.667Z,95522.38
2018-08-24T22:15:37.811Z,95525.52
2018-08-24T22:18:06.979Z,95525.38
2018-08-24T22:20:36.162Z,95523.68
2018-08-24T22:23:05.273Z,95513.80
2018-08-24T22:25:34.373Z,95519.70
2018-08-24T22:28:03.568Z,95525.78
2018-08-24T22:30:32.866Z,95510.47
2018-08-24T22:33:01.955Z,95514.76
2018-08-24T22:35:31.057Z,95506.98
2018-08-24T22:38:00.206Z,95509.34
2018-08-24T22:40:29.307Z,95511.05
2018-08-24T22:42:58.447Z,95510.63
2018-08-24T22:45:27.556Z,95517.16
2018-08-24T22:47:56.715Z,95510.98
2018-08-24T22:50:25.833Z,95513.80
2018-08-24T22:52:55.043Z,95520.02
2018-08-24T22:55:24.226Z,95527.16
2018-08-24T22:57:53.320Z,95520.50
2018-08-24T23:00:22.431Z,95517.42
2018-08-24T23:02:51.517Z,95518.70
2018-08-24T23:05:20.699Z,95512.23
2018-08-24T23:07:49.817Z,95518.40
2018-08-24T23:10:18.897Z,95526.06
2018-08-24T23:12:48.029Z,95521.86
2018-08-24T23:15:17.193Z,95528.17
2018-08-24T23:17:46.319Z,95522.91
2018-08-24T23:20:15.417Z,95526.57
2018-08-24T23:22:45.509Z,95520.32
2018-08-24T23:25:14.688Z,95521.78
2018-08-24T23:27:44.762Z,95527.11
2018-08-24T23:30:13.921Z,95521.38
2018-08-24T23:32:43.025Z,95518.39
2018-08-24T23:35:12.120Z,95516.27
2018-08-24T23:37:41.306Z,95509.30
2018-08-24T23:40:10.405Z,95503.41
2018-08-24T23:42:39.584Z,95497.28
2018-08-24T23:45:08.739Z,95504.13
2018-08-24T23:47:38.086Z,95507.47
2018-08-24T23:50:07.445Z,95500.77
2018-08-24T23:52:36.591Z,95508.11
2018-08-24T23:55:05.783Z,95502.28
2018-08-24T23:57:34.913Z,95500.46
